sensor_id;sensor_type;location;lat;lon;timestamp;temperature;humidity
18041;DHT22;9145;48.588;9.250;2023-09-19T00:02:25;16.70;99.90
18041;DHT22;9145;48.588;9.250;2023-09-19T00:04:52;16.80;99.90
18041;DHT22;9145;48.588;9.250;2023-09-19T00:07:19;16.80;99.90
18041;DHT22;9145;48.588;9.250;2023-09-19T00:09:47;16.80;99.90
18041;DHT22;9145;48.588;9.250;2023-09-19T00:12:13;16.70;99.90
18041;DHT22;9145;48.588;9.250;2023-09-19T00:14:40;16.70;99.90
18041;DHT22;9145;48.588;9.250;2023-09-19T00:17:07;16.70;99.90
18041;DHT22;9145;48.588;9.250;2023-09-19T00:19:35;16.70;99.90
18041;DHT22;9145;48.588;9.250;2023-09-19T00:22:03;16.60;99.90
18041;DHT22;9145;48.588;9.250;2023-09-19T00:24:30;16.70;99.90
18041;DHT22;9145;48.588;9.250;2023-09-19T00:26:57;16.60;99.90
18041;DHT22;9145;48.588;9.250;2023-09-19T00:29:25;16.60;99.90
18041;DHT22;9145;48.588;9.250;2023-09-19T00:31:55;16.50;99.90
18041;DHT22;9145;48.588;9.250;2023-09-19T00:34:21;16.60;99.90
18041;DHT22;9145;48.588;9.250;2023-09-19T00:36:50;16.60;99.90
18041;DHT22;9145;48.588;9.250;2023-09-19T00:39:18;16.60;99.90
18041;DHT22;9145;48.588;9.250;2023-09-19T00:41:45;16.60;99.90
18041;DHT22;9145;48.588;9.250;2023-09-19T00:44:13;16.60;99.90
18041;DHT22;9145;48.588;9.250;2023-09-19T00:46:41;16.60;99.90
18041;DHT22;9145;48.588;9.250;2023-09-19T00:49:09;16.60;99.90
18041;DHT22;9145;48.588;9.250;2023-09-19T00:51:36;16.60;99.90
18041;DHT22;9145;48.588;9.250;2023-09-19T00:54:05;16.60;99.90
18041;DHT22;9145;48.588;9.250;2023-09-19T00:56:32;16.70;99.90
18041;DHT22;9145;48.588;9.250;2023-09-19T00:58:59;16.70;99.90
18041;DHT22;9145;48.588;9.250;2023-09-19T01:01:27;16.70;99.90
18041;DHT22;9145;48.588;9.250;2023-09-19T01:03:54;16.70;99.90
18041;DHT22;9145;48.588;9.250;2023-09-19T01:06:20;16.70;99.90
18041;DHT22;9145;48.588;9.250;2023-09-19T01:08:47;16.70;99.90
18041;DHT22;9145;48.588;9.250;2023-09-19T01:11:21;16.70;99.90
18041;DHT22;9145;48.588;9.250;2023-09-19T01:13:58;16.80;99.90
18041;DHT22;9145;48.588;9.250;2023-09-19T01:16:35;16.80;99.90
18041;DHT22;9145;48.588;9.250;2023-09-19T01:19:26;16.80;99.90
18041;DHT22;9145;48.588;9.250;2023-09-19T01:22:07;16.70;99.90
18041;DHT22;9145;48.588;9.250;2023-09-19T01:25:03;16.80;99.90
18041;DHT22;9145;48.588;9.250;2023-09-19T01:28:01;16.80;99.90
18041;DHT22;9145;48.588;9.250;2023-09-19T01:30:35;16.80;99.90
18041;DHT22;9145;48.588;9.250;2023-09-19T01:33:06;16.80;99.90
18041;DHT22;9145;48.588;9.250;2023-09-19T01:35:33;16.80;99.90
18041;DHT22;9145;48.588;9.250;2023-09-19T01:38:04;16.80;99.90
18041;DHT22;9145;48.588;9.250;2023-09-19T01:40:36;16.80;99.90
18041;DHT22;9145;48.588;9.250;2023-09-19T01:43:09;16.80;99.90
18041;DHT22;9145;48.588;9.250;2023-09-19T01:45:47;16.70;99.90
18041;DHT22;9145;48.588;9.250;2023-09-19T01:48:22;16.80;99.90
18041;DHT22;9145;48.588;9.250;2023-09-19T01:50:55;16.70;99.90
18041;DHT22;9145;48.588;9.250;2023-09-19T01:53:27;16.70;99.90
18041;DHT22;9145;48.588;9.250;2023-09-19T01:55:57;16.70;99.90
18041;DHT22;9145;48.588;9.250;2023-09-19T01:58:30;16.80;99.90
18041;DHT22;9145;48.588;9.250;2023-09-19T02:01:01;16.70;99.90
18041;DHT22;9145;48.588;9.250;2023-09-19T02:03:29;16.80;99.90
18041;DHT22;9145;48.588;9.250;2023-09-19T02:05:57;16.70;99.90
18041;DHT22;9145;48.588;9.250;2023-09-19T02:08:24;16.80;99.90
18041;DHT22;9145;48.588;9.250;2023-09-19T02:10:53;16.70;99.90
18041;DHT22;9145;48.588;9.250;2023-09-19T02:13:21;16.70;99.90
18041;DHT22;9145;48.588;9.250;2023-09-19T02:15:49;16.70;99.90
18041;DHT22;9145;48.588;9.250;2023-09-19T02:18:17;16.70;99.90
18041;DHT22;9145;48.588;9.250;2023-09-19T02:20:45;16.70;99.90
18041;DHT22;9145;48.588;9.250;2023-09-19T02:23:13;16.70;99.90
18041;DHT22;9145;48.588;9.250;2023-09-19T02:25:41;16.70;99.90
18041;DHT22;9145;48.588;9.250;2023-09-19T02:28:08;16.70;99.90
18041;DHT22;9145;48.588;9.250;2023-09-19T02:30:35;16.60;99.90
18041;DHT22;9145;48.588;9.250;2023-09-19T02:33:03;16.60;99.90
18041;DHT22;9145;48.588;9.250;2023-09-19T02:35:32;16.60;99.90
18041;DHT22;9145;48.588;9.250;2023-09-19T02:38:02;16.60;99.90
18041;DHT22;9145;48.588;9.250;2023-09-19T02:40:31;16.60;99.90
18041;DHT22;9145;48.588;9.250;2023-09-19T02:43:01;16.60;99.90
18041;DHT22;9145;48.588;9.250;2023-09-19T02:45:28;16.60;99.90
18041;DHT22;9145;48.588;9.250;2023-09-19T02:47:55;16.50;99.90
18041;DHT22;9145;48.588;9.250;2023-09-19T02:50:23;16.50;99.90
18041;DHT22;9145;48.588;9.250;2023-09-19T02:52:51;16.50;99.90
18041;DHT22;9145;48.588;9.250;2023-09-19T02:55:19;16.50;99.90
18041;DHT22;9145;48.588;9.250;2023-09-19T02:57:47;16.60;99.90
18041;DHT22;9145;48.588;9.250;2023-09-19T03:00:15;16.60;99.90
18041;DHT22;9145;48.588;9.250;2023-09-19T03:02:42;16.50;99.90
18041;DHT22;9145;48.588;9.250;2023-09-19T03:05:10;16.50;99.90
18041;DHT22;9145;48.588;9.250;2023-09-19T03:07:38;16.50;99.90
18041;DHT22;9145;48.588;9.250;2023-09-19T03:10:07;16.50;99.90
18041;DHT22;9145;48.588;9.250;2023-09-19T03:12:35;16.60;99.90
18041;DHT22;9145;48.588;9.250;2023-09-19T03:15:02;16.60;99.90
18041;DHT22;9145;48.588;9.250;2023-09-19T03:17:29;16.60;99.90
18041;DHT22;9145;48.588;9.250;2023-09-19T03:19:56;16.60;99.90
18041;DHT22;9145;48.588;9.250;2023-09-19T03:22:23;16.70;99.90
18041;DHT22;9145;48.588;9.250;2023-09-19T03:24:51;16.60;99.90
18041;DHT22;9145;48.588;9.250;2023-09-19T03:27:20;16.60;99.90
18041;DHT22;9145;48.588;9.250;2023-09-19T03:29:47;16.60;99.90
18041;DHT22;9145;48.588;9.250;2023-09-19T03:32:14;16.70;99.90
18041;DHT22;9145;48.588;9.250;2023-09-19T03:34:41;16.70;99.90
18041;DHT22;9145;48.588;9.250;2023-09-19T03:37:09;16.70;99.90
18041;DHT22;9145;48.588;9.250;2023-09-19T03:39:36;16.70;99.90
18041;DHT22;9145;48.588;9.250;2023-09-19T03:42:03;16.70;99.90
18041;DHT22;9145;48.588;9.250;2023-09-19T03:44:33;16.70;99.90
18041;DHT22;9145;48.588;9.250;2023-09-19T03:47:00;16.70;99.90
18041;DHT22;9145;48.588;9.250;2023-09-19T03:49:29;16.60;99.90
18041;DHT22;9145;48.588;9.250;2023-09-19T03:51:56;16.60;99.90
18041;DHT22;9145;48.588;9.250;2023-09-19T03:54:23;16.60;99.90
18041;DHT22;9145;48.588;9.250;2023-09-19T03:56:50;16.60;99.90
18041;DHT22;9145;48.588;9.250;2023-09-19T03:59:17;16.50;99.90
18041;DHT22;9145;48.588;9.250;2023-09-19T04:01:45;16.50;99.90
18041;DHT22;9145;48.588;9.250;2023-09-19T04:04:12;16.60;99.90
18041;DHT22;9145;48.588;9.250;2023-09-19T04:06:39;16.50;99.90
18041;DHT22;9145;48.588;9.250;2023-09-19T04:09:06;16.40;99.90
18041;DHT22;9145;48.588;9.250;2023-09-19T04:11:34;16.50;99.90
18041;DHT22;9145;48.588;9.250;2023-09-19T04:14:03;16.40;99.90
18041;DHT22;9145;48.588;9.250;2023-09-19T04:16:30;16.40;99.90
18041;DHT22;9145;48.588;9.250;2023-09-19T04:18:59;16.40;99.90
18041;DHT22;9145;48.588;9.250;2023-09-19T04:21:25;16.40;99.90
18041;DHT22;9145;48.588;9.250;2023-09-19T04:23:53;16.40;99.90
18041;DHT22;9145;48.588;9.250;2023-09-19T04:26:20;16.40;99.90
18041;DHT22;9145;48.588;9.250;2023-09-19T04:28:47;16.20;99.90
18041;DHT22;9145;48.588;9.250;2023-09-19T04:31:14;16.20;99.90
18041;DHT22;9145;48.588;9.250;2023-09-19T04:33:42;16.10;99.90
18041;DHT22;9145;48.588;9.250;2023-09-19T04:36:10;16.10;99.90
18041;DHT22;9145;48.588;9.250;2023-09-19T04:38:38;16.00;99.90
18041;DHT22;9145;48.588;9.250;2023-09-19T04:41:05;16.00;99.90
18041;DHT22;9145;48.588;9.250;2023-09-19T04:43:32;16.00;99.90
18041;DHT22;9145;48.588;9.250;2023-09-19T04:45:59;16.10;99.90
18041;DHT22;9145;48.588;9.250;2023-09-19T04:48:26;16.10;99.90
18041;DHT22;9145;48.588;9.250;2023-09-19T04:50:54;16.10;99.90
18041;DHT22;9145;48.588;9.250;2023-09-19T04:53:22;16.10;99.90
18041;DHT22;9145;48.588;9.250;2023-09-19T04:55:50;16.10;99.90
18041;DHT22;9145;48.588;9.250;2023-09-19T04:58:18;16.20;99.90
18041;DHT22;9145;48.588;9.250;2023-09-19T05:00:45;16.20;99.90
18041;DHT22;9145;48.588;9.250;2023-09-19T05:03:12;16.10;99.90
18041;DHT22;9145;48.588;9.250;2023-09-19T05:05:39;16.20;99.90
18041;DHT22;9145;48.588;9.250;2023-09-19T05:08:06;16.10;99.90
18041;DHT22;9145;48.588;9.250;2023-09-19T05:10:36;16.10;99.90
18041;DHT22;9145;48.588;9.250;2023-09-19T05:13:03;16.20;99.90
18041;DHT22;9145;48.588;9.250;2023-09-19T05:15:30;16.30;99.90
18041;DHT22;9145;48.588;9.250;2023-09-19T05:17:57;16.30;99.90
18041;DHT22;9145;48.588;9.250;2023-09-19T05:20:24;16.30;99.90
18041;DHT22;9145;48.588;9.250;2023-09-19T05:22:58;16.30;99.90
18041;DHT22;9145;48.588;9.250;2023-09-19T05:25:27;16.40;99.90
18041;DHT22;9145;48.588;9.250;2023-09-19T05:27:56;16.40;99.90
18041;DHT22;9145;48.588;9.250;2023-09-19T05:30:25;16.30;99.90
18041;DHT22;9145;48.588;9.250;2023-09-19T05:32:53;16.40;99.90
18041;DHT22;9145;48.588;9.250;2023-09-19T05:35:20;16.40;99.90
18041;DHT22;9145;48.588;9.250;2023-09-19T05:37:48;16.40;99.90
18041;DHT22;9145;48.588;9.250;2023-09-19T05:40:16;16.40;99.90
18041;DHT22;9145;48.588;9.250;2023-09-19T05:42:43;16.40;99.90
18041;DHT22;9145;48.588;9.250;2023-09-19T05:45:12;16.50;99.90
18041;DHT22;9145;48.588;9.250;2023-09-19T05:47:39;16.50;99.90
18041;DHT22;9145;48.588;9.250;2023-09-19T05:50:09;16.50;99.90
18041;DHT22;9145;48.588;9.250;2023-09-19T05:52:36;16.50;99.90
18041;DHT22;9145;48.588;9.250;2023-09-19T05:55:04;16.50;99.90
18041;DHT22;9145;48.588;9.250;2023-09-19T05:57:32;16.50;99.90
18041;DHT22;9145;48.588;9.250;2023-09-19T05:59:59;16.50;99.90
18041;DHT22;9145;48.588;9.250;2023-09-19T06:02:27;16.60;99.90
18041;DHT22;9145;48.588;9.250;2023-09-19T06:04:55;16.70;99.90
18041;DHT22;9145;48.588;9.250;2023-09-19T06:07:22;16.70;99.90
18041;DHT22;9145;48.588;9.250;2023-09-19T06:09:51;16.70;99.90
18041;DHT22;9145;48.588;9.250;2023-09-19T06:12:19;16.70;99.90
18041;DHT22;9145;48.588;9.250;2023-09-19T06:14:45;16.60;99.90
18041;DHT22;9145;48.588;9.250;2023-09-19T06:17:13;16.60;99.90
18041;DHT22;9145;48.588;9.250;2023-09-19T06:19:42;16.50;99.90
18041;DHT22;9145;48.588;9.250;2023-09-19T06:22:11;16.40;99.90
18041;DHT22;9145;48.588;9.250;2023-09-19T06:24:41;16.30;99.90
18041;DHT22;9145;48.588;9.250;2023-09-19T06:27:08;16.30;99.90
18041;DHT22;9145;48.588;9.250;2023-09-19T06:29:35;16.20;99.90
18041;DHT22;9145;48.588;9.250;2023-09-19T06:32:07;16.10;99.90
18041;DHT22;9145;48.588;9.250;2023-09-19T06:34:34;16.00;99.90
18041;DHT22;9145;48.588;9.250;2023-09-19T06:37:02;15.90;99.90
18041;DHT22;9145;48.588;9.250;2023-09-19T06:39:29;16.00;99.90
18041;DHT22;9145;48.588;9.250;2023-09-19T06:41:56;16.00;99.90
18041;DHT22;9145;48.588;9.250;2023-09-19T06:44:24;15.90;99.90
18041;DHT22;9145;48.588;9.250;2023-09-19T06:46:51;16.00;99.90
18041;DHT22;9145;48.588;9.250;2023-09-19T06:49:18;16.00;99.90
18041;DHT22;9145;48.588;9.250;2023-09-19T06:51:44;16.10;99.90
18041;DHT22;9145;48.588;9.250;2023-09-19T06:54:13;16.10;99.90
18041;DHT22;9145;48.588;9.250;2023-09-19T06:56:39;16.10;99.90
18041;DHT22;9145;48.588;9.250;2023-09-19T06:59:07;16.10;99.90
18041;DHT22;9145;48.588;9.250;2023-09-19T07:01:34;16.10;99.90
18041;DHT22;9145;48.588;9.250;2023-09-19T07:04:03;16.20;99.90
18041;DHT22;9145;48.588;9.250;2023-09-19T07:06:30;16.30;99.90
18041;DHT22;9145;48.588;9.250;2023-09-19T07:08:57;16.30;99.90
18041;DHT22;9145;48.588;9.250;2023-09-19T07:11:25;16.30;99.90
18041;DHT22;9145;48.588;9.250;2023-09-19T07:13:52;16.30;99.90
18041;DHT22;9145;48.588;9.250;2023-09-19T07:16:19;16.40;99.90
18041;DHT22;9145;48.588;9.250;2023-09-19T07:18:55;16.40;99.90
18041;DHT22;9145;48.588;9.250;2023-09-19T07:21:22;16.50;99.90
18041;DHT22;9145;48.588;9.250;2023-09-19T07:23:49;16.50;99.90
18041;DHT22;9145;48.588;9.250;2023-09-19T07:26:16;16.60;99.90
18041;DHT22;9145;48.588;9.250;2023-09-19T07:28:44;16.70;99.90
18041;DHT22;9145;48.588;9.250;2023-09-19T07:31:11;16.70;99.90
18041;DHT22;9145;48.588;9.250;2023-09-19T07:33:40;16.80;99.90
18041;DHT22;9145;48.588;9.250;2023-09-19T07:36:10;16.80;99.90
18041;DHT22;9145;48.588;9.250;2023-09-19T07:38:39;16.90;99.90
18041;DHT22;9145;48.588;9.250;2023-09-19T07:41:05;16.90;99.90
18041;DHT22;9145;48.588;9.250;2023-09-19T07:43:34;17.00;99.90
18041;DHT22;9145;48.588;9.250;2023-09-19T07:46:06;17.00;99.90
18041;DHT22;9145;48.588;9.250;2023-09-19T07:48:34;17.00;99.90
18041;DHT22;9145;48.588;9.250;2023-09-19T07:51:04;17.00;99.90
18041;DHT22;9145;48.588;9.250;2023-09-19T07:53:32;17.10;99.90
18041;DHT22;9145;48.588;9.250;2023-09-19T07:56:05;17.10;99.90
18041;DHT22;9145;48.588;9.250;2023-09-19T07:58:32;17.20;99.90
18041;DHT22;9145;48.588;9.250;2023-09-19T08:01:03;17.30;99.90
18041;DHT22;9145;48.588;9.250;2023-09-19T08:03:31;17.40;99.90
18041;DHT22;9145;48.588;9.250;2023-09-19T08:05:58;17.50;99.90
18041;DHT22;9145;48.588;9.250;2023-09-19T08:08:25;17.60;99.90
18041;DHT22;9145;48.588;9.250;2023-09-19T08:10:53;17.70;99.90
18041;DHT22;9145;48.588;9.250;2023-09-19T08:13:22;17.80;99.90
18041;DHT22;9145;48.588;9.250;2023-09-19T08:15:49;17.90;99.90
18041;DHT22;9145;48.588;9.250;2023-09-19T08:18:16;17.90;99.90
18041;DHT22;9145;48.588;9.250;2023-09-19T08:20:49;18.00;99.90
18041;DHT22;9145;48.588;9.250;2023-09-19T08:23:16;18.20;99.90
18041;DHT22;9145;48.588;9.250;2023-09-19T08:25:43;18.20;99.90
18041;DHT22;9145;48.588;9.250;2023-09-19T08:28:10;18.20;99.90
18041;DHT22;9145;48.588;9.250;2023-09-19T08:30:43;18.20;99.90
18041;DHT22;9145;48.588;9.250;2023-09-19T08:33:09;18.20;99.90
18041;DHT22;9145;48.588;9.250;2023-09-19T08:35:36;18.20;99.90
18041;DHT22;9145;48.588;9.250;2023-09-19T08:38:06;18.20;99.90
18041;DHT22;9145;48.588;9.250;2023-09-19T08:40:34;18.40;99.90
18041;DHT22;9145;48.588;9.250;2023-09-19T08:43:05;18.30;99.90
18041;DHT22;9145;48.588;9.250;2023-09-19T08:45:32;18.30;99.90
18041;DHT22;9145;48.588;9.250;2023-09-19T08:48:11;18.20;99.90
18041;DHT22;9145;48.588;9.250;2023-09-19T08:50:43;18.10;99.90
18041;DHT22;9145;48.588;9.250;2023-09-19T08:53:21;18.20;99.90
18041;DHT22;9145;48.588;9.250;2023-09-19T08:55:50;18.20;99.90
18041;DHT22;9145;48.588;9.250;2023-09-19T08:58:20;18.20;99.90
18041;DHT22;9145;48.588;9.250;2023-09-19T09:00:49;18.30;99.90
18041;DHT22;9145;48.588;9.250;2023-09-19T09:03:18;18.40;99.90
18041;DHT22;9145;48.588;9.250;2023-09-19T09:05:47;18.60;99.90
18041;DHT22;9145;48.588;9.250;2023-09-19T09:08:19;18.60;99.90
18041;DHT22;9145;48.588;9.250;2023-09-19T09:10:47;18.60;99.90
18041;DHT22;9145;48.588;9.250;2023-09-19T09:13:14;18.80;99.90
18041;DHT22;9145;48.588;9.250;2023-09-19T09:15:41;18.90;99.90
18041;DHT22;9145;48.588;9.250;2023-09-19T09:18:10;18.90;99.90
18041;DHT22;9145;48.588;9.250;2023-09-19T09:20:37;19.00;99.90
18041;DHT22;9145;48.588;9.250;2023-09-19T09:23:04;19.00;99.90
18041;DHT22;9145;48.588;9.250;2023-09-19T09:25:49;19.10;99.90
18041;DHT22;9145;48.588;9.250;2023-09-19T09:28:21;19.20;99.90
18041;DHT22;9145;48.588;9.250;2023-09-19T09:30:48;19.20;99.90
18041;DHT22;9145;48.588;9.250;2023-09-19T09:33:17;19.20;99.90
18041;DHT22;9145;48.588;9.250;2023-09-19T09:35:51;19.30;99.90
18041;DHT22;9145;48.588;9.250;2023-09-19T09:38:23;19.10;99.90
18041;DHT22;9145;48.588;9.250;2023-09-19T09:40:55;19.20;99.90
18041;DHT22;9145;48.588;9.250;2023-09-19T09:43:32;19.20;99.90
18041;DHT22;9145;48.588;9.250;2023-09-19T09:46:07;19.00;99.90
18041;DHT22;9145;48.588;9.250;2023-09-19T09:48:44;18.90;99.90
18041;DHT22;9145;48.588;9.250;2023-09-19T09:51:29;18.80;99.90
18041;DHT22;9145;48.588;9.250;2023-09-19T09:54:10;18.60;99.90
18041;DHT22;9145;48.588;9.250;2023-09-19T09:56:52;18.60;99.90
18041;DHT22;9145;48.588;9.250;2023-09-19T09:59:19;18.50;99.90
18041;DHT22;9145;48.588;9.250;2023-09-19T10:01:49;18.60;99.90
18041;DHT22;9145;48.588;9.250;2023-09-19T10:04:27;18.60;99.90
18041;DHT22;9145;48.588;9.250;2023-09-19T10:06:57;18.70;99.90
18041;DHT22;9145;48.588;9.250;2023-09-19T10:09:30;18.80;99.90
18041;DHT22;9145;48.588;9.250;2023-09-19T10:12:06;18.80;99.90
18041;DHT22;9145;48.588;9.250;2023-09-19T10:14:37;18.90;99.90
18041;DHT22;9145;48.588;9.250;2023-09-19T10:17:05;19.00;99.90
18041;DHT22;9145;48.588;9.250;2023-09-19T10:19:37;18.90;99.90
18041;DHT22;9145;48.588;9.250;2023-09-19T10:22:05;18.90;99.90
18041;DHT22;9145;48.588;9.250;2023-09-19T10:24:35;19.00;99.90
18041;DHT22;9145;48.588;9.250;2023-09-19T10:27:06;19.10;99.90
18041;DHT22;9145;48.588;9.250;2023-09-19T10:29:36;19.10;99.90
18041;DHT22;9145;48.588;9.250;2023-09-19T10:32:06;19.30;99.90
18041;DHT22;9145;48.588;9.250;2023-09-19T10:34:35;19.50;99.90
18041;DHT22;9145;48.588;9.250;2023-09-19T10:37:02;19.90;99.90
18041;DHT22;9145;48.588;9.250;2023-09-19T10:39:32;20.10;99.90
18041;DHT22;9145;48.588;9.250;2023-09-19T10:42:02;20.40;99.90
18041;DHT22;9145;48.588;9.250;2023-09-19T10:44:33;20.70;99.90
18041;DHT22;9145;48.588;9.250;2023-09-19T10:46:59;20.60;99.90
18041;DHT22;9145;48.588;9.250;2023-09-19T10:49:27;20.50;99.90
18041;DHT22;9145;48.588;9.250;2023-09-19T10:51:56;20.80;99.90
18041;DHT22;9145;48.588;9.250;2023-09-19T10:54:28;21.10;99.90
18041;DHT22;9145;48.588;9.250;2023-09-19T10:56:56;21.40;99.90
18041;DHT22;9145;48.588;9.250;2023-09-19T10:59:25;21.60;99.90
18041;DHT22;9145;48.588;9.250;2023-09-19T11:02:16;21.70;99.90
18041;DHT22;9145;48.588;9.250;2023-09-19T11:04:44;22.00;99.90
18041;DHT22;9145;48.588;9.250;2023-09-19T11:07:14;22.10;99.90
18041;DHT22;9145;48.588;9.250;2023-09-19T11:09:44;22.00;99.90
18041;DHT22;9145;48.588;9.250;2023-09-19T11:12:12;21.90;99.90
18041;DHT22;9145;48.588;9.250;2023-09-19T11:15:07;21.60;99.90
18041;DHT22;9145;48.588;9.250;2023-09-19T11:17:37;21.30;99.90
18041;DHT22;9145;48.588;9.250;2023-09-19T11:20:25;21.50;99.90
18041;DHT22;9145;48.588;9.250;2023-09-19T11:23:18;21.70;99.90
18041;DHT22;9145;48.588;9.250;2023-09-19T11:25:51;21.70;99.90
18041;DHT22;9145;48.588;9.250;2023-09-19T11:28:32;21.70;99.90
18041;DHT22;9145;48.588;9.250;2023-09-19T11:37:03;22.40;99.90
18041;DHT22;9145;48.588;9.250;2023-09-19T11:39:30;22.50;99.90
18041;DHT22;9145;48.588;9.250;2023-09-19T11:41:58;22.20;99.90
18041;DHT22;9145;48.588;9.250;2023-09-19T11:44:33;21.90;99.90
18041;DHT22;9145;48.588;9.250;2023-09-19T11:47:05;21.50;99.90
18041;DHT22;9145;48.588;9.250;2023-09-19T11:49:32;21.30;99.90
18041;DHT22;9145;48.588;9.250;2023-09-19T11:52:01;21.20;99.90
18041;DHT22;9145;48.588;9.250;2023-09-19T11:54:32;21.30;99.90
18041;DHT22;9145;48.588;9.250;2023-09-19T11:57:00;21.40;99.90
18041;DHT22;9145;48.588;9.250;2023-09-19T11:59:29;21.60;99.90
18041;DHT22;9145;48.588;9.250;2023-09-19T12:01:57;21.90;99.90
18041;DHT22;9145;48.588;9.250;2023-09-19T12:04:40;21.80;99.90
18041;DHT22;9145;48.588;9.250;2023-09-19T12:07:11;21.60;99.90
18041;DHT22;9145;48.588;9.250;2023-09-19T12:09:42;21.60;99.90
18041;DHT22;9145;48.588;9.250;2023-09-19T12:12:19;21.70;99.90
18041;DHT22;9145;48.588;9.250;2023-09-19T12:14:48;21.70;99.90
18041;DHT22;9145;48.588;9.250;2023-09-19T12:17:15;21.80;99.90
18041;DHT22;9145;48.588;9.250;2023-09-19T12:19:49;21.90;99.90
18041;DHT22;9145;48.588;9.250;2023-09-19T12:22:17;22.00;99.90
18041;DHT22;9145;48.588;9.250;2023-09-19T12:24:47;22.10;99.90
18041;DHT22;9145;48.588;9.250;2023-09-19T12:27:16;22.10;99.90
18041;DHT22;9145;48.588;9.250;2023-09-19T12:29:44;21.80;99.90
18041;DHT22;9145;48.588;9.250;2023-09-19T12:32:11;21.60;99.90
18041;DHT22;9145;48.588;9.250;2023-09-19T12:34:38;21.60;99.90
18041;DHT22;9145;48.588;9.250;2023-09-19T12:37:10;21.60;99.90
18041;DHT22;9145;48.588;9.250;2023-09-19T12:39:49;21.80;99.90
18041;DHT22;9145;48.588;9.250;2023-09-19T12:42:19;21.80;99.90
18041;DHT22;9145;48.588;9.250;2023-09-19T12:44:48;22.20;99.90
18041;DHT22;9145;48.588;9.250;2023-09-19T12:47:18;22.40;99.90
18041;DHT22;9145;48.588;9.250;2023-09-19T12:50:08;22.20;99.90
18041;DHT22;9145;48.588;9.250;2023-09-19T12:52:39;22.00;99.90
18041;DHT22;9145;48.588;9.250;2023-09-19T12:55:10;21.80;99.90
18041;DHT22;9145;48.588;9.250;2023-09-19T12:57:58;21.70;99.90
18041;DHT22;9145;48.588;9.250;2023-09-19T13:00:35;21.60;99.90
18041;DHT22;9145;48.588;9.250;2023-09-19T13:03:24;21.50;99.90
18041;DHT22;9145;48.588;9.250;2023-09-19T13:05:53;21.70;99.90
18041;DHT22;9145;48.588;9.250;2023-09-19T13:08:23;22.20;99.90
18041;DHT22;9145;48.588;9.250;2023-09-19T13:11:11;22.80;99.90
18041;DHT22;9145;48.588;9.250;2023-09-19T13:13:40;23.10;99.90
18041;DHT22;9145;48.588;9.250;2023-09-19T13:16:07;23.20;99.90
18041;DHT22;9145;48.588;9.250;2023-09-19T13:18:48;23.10;99.90
18041;DHT22;9145;48.588;9.250;2023-09-19T13:21:27;22.80;99.90
18041;DHT22;9145;48.588;9.250;2023-09-19T13:23:56;22.90;99.90
18041;DHT22;9145;48.588;9.250;2023-09-19T13:26:26;23.30;99.90
18041;DHT22;9145;48.588;9.250;2023-09-19T13:28:53;23.40;99.90
18041;DHT22;9145;48.588;9.250;2023-09-19T13:31:20;22.90;99.90
18041;DHT22;9145;48.588;9.250;2023-09-19T13:33:48;22.70;99.90
18041;DHT22;9145;48.588;9.250;2023-09-19T13:36:16;23.00;99.90
18041;DHT22;9145;48.588;9.250;2023-09-19T13:38:44;23.10;99.90
18041;DHT22;9145;48.588;9.250;2023-09-19T13:41:13;23.20;99.90
18041;DHT22;9145;48.588;9.250;2023-09-19T13:43:41;23.20;99.90
18041;DHT22;9145;48.588;9.250;2023-09-19T13:46:09;23.20;99.90
18041;DHT22;9145;48.588;9.250;2023-09-19T13:48:40;23.20;99.90
18041;DHT22;9145;48.588;9.250;2023-09-19T13:51:07;23.30;99.90
18041;DHT22;9145;48.588;9.250;2023-09-19T13:53:34;23.30;99.90
18041;DHT22;9145;48.588;9.250;2023-09-19T13:56:01;23.50;99.90
18041;DHT22;9145;48.588;9.250;2023-09-19T13:58:27;23.60;99.90
18041;DHT22;9145;48.588;9.250;2023-09-19T14:00:58;23.80;99.90
18041;DHT22;9145;48.588;9.250;2023-09-19T14:03:26;23.80;99.90
18041;DHT22;9145;48.588;9.250;2023-09-19T14:05:54;24.10;99.90
18041;DHT22;9145;48.588;9.250;2023-09-19T14:08:21;24.30;99.90
18041;DHT22;9145;48.588;9.250;2023-09-19T14:10:49;24.10;99.90
18041;DHT22;9145;48.588;9.250;2023-09-19T14:13:15;24.10;99.90
18041;DHT22;9145;48.588;9.250;2023-09-19T14:15:42;24.40;99.90
18041;DHT22;9145;48.588;9.250;2023-09-19T14:18:10;24.30;99.90
18041;DHT22;9145;48.588;9.250;2023-09-19T14:20:38;24.30;99.90
18041;DHT22;9145;48.588;9.250;2023-09-19T14:23:06;24.30;99.90
18041;DHT22;9145;48.588;9.250;2023-09-19T14:25:34;24.20;99.90
18041;DHT22;9145;48.588;9.250;2023-09-19T14:28:01;23.80;99.90
18041;DHT22;9145;48.588;9.250;2023-09-19T14:30:28;24.10;99.90
18041;DHT22;9145;48.588;9.250;2023-09-19T14:32:55;24.00;99.90
18041;DHT22;9145;48.588;9.250;2023-09-19T14:35:24;24.10;99.90
18041;DHT22;9145;48.588;9.250;2023-09-19T14:37:51;24.00;99.90
18041;DHT22;9145;48.588;9.250;2023-09-19T14:40:18;24.40;99.90
18041;DHT22;9145;48.588;9.250;2023-09-19T14:42:45;24.80;99.90
18041;DHT22;9145;48.588;9.250;2023-09-19T14:45:14;25.00;99.90
18041;DHT22;9145;48.588;9.250;2023-09-19T14:47:43;25.20;99.90
18041;DHT22;9145;48.588;9.250;2023-09-19T14:50:10;25.10;99.90
18041;DHT22;9145;48.588;9.250;2023-09-19T14:52:39;25.30;99.90
18041;DHT22;9145;48.588;9.250;2023-09-19T14:55:06;25.20;99.90
18041;DHT22;9145;48.588;9.250;2023-09-19T14:57:34;25.10;99.90
18041;DHT22;9145;48.588;9.250;2023-09-19T15:00:06;25.30;99.90
18041;DHT22;9145;48.588;9.250;2023-09-19T15:02:37;25.40;99.90
18041;DHT22;9145;48.588;9.250;2023-09-19T15:05:05;25.20;99.90
18041;DHT22;9145;48.588;9.250;2023-09-19T15:07:33;25.20;99.90
18041;DHT22;9145;48.588;9.250;2023-09-19T15:10:04;25.30;99.90
18041;DHT22;9145;48.588;9.250;2023-09-19T15:12:35;25.70;99.90
18041;DHT22;9145;48.588;9.250;2023-09-19T15:15:03;25.70;99.90
18041;DHT22;9145;48.588;9.250;2023-09-19T15:17:32;25.30;99.90
18041;DHT22;9145;48.588;9.250;2023-09-19T15:19:59;25.40;99.90
18041;DHT22;9145;48.588;9.250;2023-09-19T15:22:27;25.50;99.90
18041;DHT22;9145;48.588;9.250;2023-09-19T15:24:54;25.40;99.90
18041;DHT22;9145;48.588;9.250;2023-09-19T15:27:23;25.60;99.90
18041;DHT22;9145;48.588;9.250;2023-09-19T15:29:50;25.90;99.90
18041;DHT22;9145;48.588;9.250;2023-09-19T15:32:16;25.90;99.60
18041;DHT22;9145;48.588;9.250;2023-09-19T15:34:43;25.80;99.40
18041;DHT22;9145;48.588;9.250;2023-09-19T15:37:10;25.80;99.10
18041;DHT22;9145;48.588;9.250;2023-09-19T15:39:37;25.90;99.00
18041;DHT22;9145;48.588;9.250;2023-09-19T15:42:04;25.90;98.70
18041;DHT22;9145;48.588;9.250;2023-09-19T15:44:33;26.00;99.40
18041;DHT22;9145;48.588;9.250;2023-09-19T15:47:00;26.20;98.90
18041;DHT22;9145;48.588;9.250;2023-09-19T15:49:27;26.20;98.20
18041;DHT22;9145;48.588;9.250;2023-09-19T15:51:54;25.90;98.40
18041;DHT22;9145;48.588;9.250;2023-09-19T15:54:21;26.00;98.60
18041;DHT22;9145;48.588;9.250;2023-09-19T15:56:48;25.90;99.10
18041;DHT22;9145;48.588;9.250;2023-09-19T15:59:17;26.00;99.50
18041;DHT22;9145;48.588;9.250;2023-09-19T16:01:45;26.20;99.20
18041;DHT22;9145;48.588;9.250;2023-09-19T16:04:12;26.60;98.90
18041;DHT22;9145;48.588;9.250;2023-09-19T16:06:40;26.50;98.30